Time;durP1;ratioP1;P1;durP2;ratioP2;P2;SDS_P1;SDS_P2;PMS_P1;PMS_P2;Temp;Humidity;BMP_temperature;BMP_pressure;BME280_temperature;BME280_humidity;BME280_pressure;Samples;Min_cycle;Max_cycle;Signal;HPM_P1;HPM_P2
2023/12/07 00:00:17;;;;;;;22.80;5.60;;;26.60;68.20;;;;;;6096635;23;20059;-70
2023/12/07 00:02:44;;;;;;;16.88;5.85;;;26.70;67.20;;;;;;6096314;23;20013;-70
2023/12/07 00:05:11;;;;;;;19.65;5.55;;;26.60;68.70;;;;;;6096216;23;20046;-70
2023/12/07 00:07:38;;;;;;;19.92;6.13;;;26.50;68.40;;;;;;6095916;23;20018;-70
2023/12/07 00:10:06;;;;;;;16.25;5.40;;;26.50;69.40;;;;;;6084878;23;20003;-70
2023/12/07 00:12:33;;;;;;;15.20;5.30;;;26.50;69.20;;;;;;6096092;23;20089;-70
2023/12/07 00:15:02;;;;;;;15.50;5.40;;;26.60;70.00;;;;;;6096390;23;20054;-70
2023/12/07 00:17:29;;;;;;;24.25;5.85;;;26.50;69.10;;;;;;6096028;23;20007;-71
2023/12/07 00:19:57;;;;;;;17.42;5.75;;;26.50;69.80;;;;;;6095983;23;20018;-70
2023/12/07 00:22:25;;;;;;;24.05;6.15;;;26.50;70.00;;;;;;6096171;23;20007;-70
2023/12/07 00:24:53;;;;;;;20.75;6.50;;;26.50;70.50;;;;;;6095999;23;20464;-70
2023/12/07 00:27:20;;;;;;;19.52;6.10;;;26.50;70.10;;;;;;6096488;23;20002;-71
2023/12/07 00:29:47;;;;;;;21.65;6.38;;;26.40;70.80;;;;;;6096078;23;20432;-71
2023/12/07 00:32:14;;;;;;;19.45;6.07;;;26.30;70.90;;;;;;6095966;23;20037;-71
2023/12/07 00:34:42;;;;;;;16.38;6.00;;;26.10;69.60;;;;;;6095990;23;20011;-71
2023/12/07 00:37:09;;;;;;;19.15;6.00;;;26.00;70.00;;;;;;6095873;23;20436;-71
2023/12/07 00:39:36;;;;;;;21.05;5.30;;;25.80;70.30;;;;;;6096049;23;20389;-71
2023/12/07 00:42:04;;;;;;;24.45;7.10;;;25.60;70.10;;;;;;6096340;23;20030;-70
2023/12/07 00:44:31;;;;;;;22.35;6.88;;;25.50;71.20;;;;;;6096128;23;20018;-70
2023/12/07 00:46:58;;;;;;;22.13;6.43;;;25.30;71.40;;;;;;6095714;23;20430;-70
2023/12/07 00:49:25;;;;;;;20.90;6.70;;;25.30;71.80;;;;;;6096199;23;20065;-70
2023/12/07 00:51:53;;;;;;;22.88;5.90;;;25.20;72.90;;;;;;6096214;23;20062;-70
2023/12/07 00:54:20;;;;;;;18.83;6.22;;;25.10;72.10;;;;;;6096057;23;20006;-70
2023/12/07 00:56:47;;;;;;;21.42;6.60;;;25.00;73.70;;;;;;6096155;23;20026;-70
2023/12/07 00:59:14;;;;;;;20.60;7.20;;;25.00;73.80;;;;;;6095958;23;20037;-70
2023/12/07 01:01:42;;;;;;;23.85;7.32;;;25.10;74.20;;;;;;6096439;23;20002;-70
2023/12/07 01:04:09;;;;;;;21.40;7.25;;;25.10;73.30;;;;;;6096075;23;20438;-70
2023/12/07 01:06:37;;;;;;;28.67;7.20;;;25.10;74.50;;;;;;6095905;23;20094;-70
2023/12/07 01:09:04;;;;;;;25.10;7.68;;;25.10;75.00;;;;;;6084086;23;20030;-70
2023/12/07 01:11:31;;;;;;;24.73;6.38;;;25.00;73.70;;;;;;6095710;23;20430;-71
2023/12/07 01:13:59;;;;;;;24.25;7.25;;;25.00;73.60;;;;;;6095727;23;20002;-70
2023/12/07 01:16:26;;;;;;;20.98;6.70;;;25.00;73.60;;;;;;6095715;23;20007;-70
2023/12/07 01:18:53;;;;;;;25.20;7.00;;;25.00;73.20;;;;;;6095945;23;20025;-70
2023/12/07 01:21:20;;;;;;;20.92;6.43;;;25.10;72.30;;;;;;6097165;23;20010;-70
2023/12/07 01:23:48;;;;;;;17.30;6.22;;;25.10;72.10;;;;;;6097546;23;20021;-70
2023/12/07 01:26:15;;;;;;;21.90;6.72;;;25.10;72.90;;;;;;6097694;23;20538;-70
2023/12/07 01:28:42;;;;;;;21.58;7.40;;;25.10;73.40;;;;;;6097984;23;20421;-71
2023/12/07 01:31:10;;;;;;;19.15;7.00;;;25.30;73.90;;;;;;6098144;23;20026;-71
2023/12/07 01:33:37;;;;;;;21.90;6.85;;;25.40;72.80;;;;;;6097543;23;20038;-71
2023/12/07 01:36:04;;;;;;;26.35;7.60;;;25.40;72.40;;;;;;6097777;23;20034;-70
2023/12/07 01:38:32;;;;;;;21.33;7.22;;;25.40;73.20;;;;;;6097958;23;20003;-71
2023/12/07 01:40:59;;;;;;;21.50;6.32;;;25.30;73.80;;;;;;6097662;23;20342;-71
2023/12/07 01:43:26;;;;;;;22.45;6.97;;;25.20;73.00;;;;;;6097743;23;20051;-71
2023/12/07 01:45:54;;;;;;;20.95;7.03;;;25.20;73.70;;;;;;6097019;23;20026;-71
2023/12/07 01:48:22;;;;;;;23.55;7.20;;;25.10;72.80;;;;;;6072081;23;20086;-71
2023/12/07 01:50:49;;;;;;;23.05;7.10;;;25.10;73.40;;;;;;6048276;23;20014;-71
2023/12/07 01:53:17;;;;;;;20.35;6.60;;;25.10;72.80;;;;;;6097607;23;20489;-71
2023/12/07 01:55:44;;;;;;;17.58;6.80;;;25.20;72.40;;;;;;6097748;23;20034;-70
2023/12/07 01:58:11;;;;;;;19.42;7.22;;;25.30;72.00;;;;;;6072823;23;20057;-71
2023/12/07 02:00:38;;;;;;;19.65;7.43;;;25.30;72.90;;;;;;6098368;23;20006;-71
2023/12/07 02:03:06;;;;;;;22.92;7.72;;;25.30;72.50;;;;;;6072404;23;20279;-71
2023/12/07 02:05:33;;;;;;;16.92;6.60;;;25.30;74.10;;;;;;6097267;23;20038;-71
2023/12/07 02:08:00;;;;;;;16.85;6.20;;;25.50;72.50;;;;;;6072316;23;20082;-71
2023/12/07 02:10:28;;;;;;;24.98;7.45;;;25.50;71.10;;;;;;6071890;23;20003;-71
2023/12/07 02:12:55;;;;;;;21.80;6.70;;;25.50;71.90;;;;;;6097372;23;20011;-71
2023/12/07 02:15:22;;;;;;;16.40;6.43;;;25.60;72.50;;;;;;6071607;23;20006;-72
2023/12/07 02:18:03;;;;;;;24.60;7.10;;;25.60;73.20;;;;;;6096632;23;20014;-71
2023/12/07 02:20:47;;;;;;;26.33;7.93;;;25.50;72.20;;;;;;6072126;23;20086;-71
2023/12/07 02:23:15;;;;;;;23.08;7.13;;;25.60;74.00;;;;;;6097003;23;20021;-71
2023/12/07 02:26:16;;;;;;;16.95;6.55;;;25.60;73.10;;;;;;6072244;23;20178;-70
2023/12/07 02:28:43;;;;;;;19.38;6.45;;;25.60;72.90;;;;;;6097384;23;20045;-71
2023/12/07 02:31:11;;;;;;;21.73;7.10;;;25.40;70.80;;;;;;6097324;23;20007;-71
2023/12/07 02:33:38;;;;;;;20.63;6.80;;;25.10;71.50;;;;;;6096811;23;20017;-71
2023/12/07 02:36:05;;;;;;;21.85;6.50;;;25.10;72.80;;;;;;6071757;23;20085;-71
2023/12/07 02:38:33;;;;;;;23.50;6.50;;;25.00;72.60;;;;;;6048150;23;20002;-71
2023/12/07 02:41:00;;;;;;;24.20;6.68;;;25.00;73.20;;;;;;6047888;23;20311;-71
2023/12/07 02:43:27;;;;;;;21.30;6.80;;;25.00;73.20;;;;;;6071903;23;20074;-71
2023/12/07 02:45:54;;;;;;;22.08;6.97;;;25.10;73.90;;;;;;6071653;23;20485;-71
2023/12/07 02:48:22;;;;;;;20.05;8.18;;;25.20;73.90;;;;;;6071546;23;20430;-71
2023/12/07 02:50:49;;;;;;;23.20;8.73;;;25.10;73.40;;;;;;6071730;23;20006;-71
2023/12/07 02:53:16;;;;;;;28.17;9.27;;;25.20;74.70;;;;;;6071955;23;20006;-71
2023/12/07 02:55:44;;;;;;;25.35;10.02;;;25.20;73.60;;;;;;6097321;23;20186;-72
2023/12/07 02:58:11;;;;;;;22.23;8.75;;;25.10;74.20;;;;;;6096935;23;20441;-71
2023/12/07 03:00:38;;;;;;;27.48;9.65;;;25.10;74.10;;;;;;6096613;23;20013;-71
2023/12/07 03:03:05;;;;;;;26.13;11.60;;;25.10;73.80;;;;;;6096979;23;19999;-71
2023/12/07 03:05:33;;;;;;;25.90;12.18;;;25.10;74.10;;;;;;6096694;23;20014;-71
2023/12/07 03:08:00;;;;;;;29.35;12.13;;;25.00;74.10;;;;;;6096810;23;20024;-71
2023/12/07 03:10:27;;;;;;;34.80;12.10;;;25.00;74.90;;;;;;6096958;23;20418;-70
2023/12/07 03:12:54;;;;;;;28.67;11.40;;;24.90;74.20;;;;;;6096491;23;19999;-71
2023/12/07 03:15:22;;;;;;;31.98;12.18;;;25.00;72.50;;;;;;6096594;23;20006;-71
2023/12/07 03:17:50;;;;;;;29.00;12.00;;;25.00;73.60;;;;;;6096392;23;20003;-70
2023/12/07 03:20:17;;;;;;;28.33;13.15;;;25.10;73.60;;;;;;6097104;23;20010;-71
2023/12/07 03:22:45;;;;;;;32.72;13.98;;;25.20;72.90;;;;;;6096277;23;20029;-71
2023/12/07 03:25:12;;;;;;;34.28;14.27;;;25.20;72.90;;;;;;6071172;23;20014;-71
2023/12/07 03:27:39;;;;;;;33.30;14.07;;;25.20;72.50;;;;;;6096528;23;20006;-70
2023/12/07 03:30:07;;;;;;;28.98;11.23;;;25.30;73.20;;;;;;6096384;23;20385;-71
2023/12/07 03:32:34;;;;;;;28.90;10.00;;;25.30;71.60;;;;;;6096789;23;20330;-70
2023/12/07 03:35:01;;;;;;;22.60;9.52;;;25.30;72.10;;;;;;6096269;23;20034;-70
2023/12/07 03:37:28;;;;;;;24.13;9.48;;;25.30;72.00;;;;;;6096275;23;20006;-71
2023/12/07 03:39:56;;;;;;;21.30;8.27;;;25.30;73.10;;;;;;6096445;23;20429;-71
2023/12/07 03:42:23;;;;;;;22.65;7.50;;;25.30;72.50;;;;;;6096306;23;20006;-71
2023/12/07 03:44:50;;;;;;;19.35;7.72;;;25.30;73.30;;;;;;6096224;23;20011;-71
2023/12/07 03:47:17;;;;;;;18.88;6.93;;;25.30;73.50;;;;;;6096523;23;20315;-71
2023/12/07 03:49:46;;;;;;;23.23;7.30;;;25.30;72.40;;;;;;6096057;23;20361;-71
2023/12/07 03:52:13;;;;;;;22.42;5.63;;;25.30;72.90;;;;;;6096038;23;20077;-71
2023/12/07 03:54:40;;;;;;;24.70;5.85;;;25.30;72.40;;;;;;6096654;23;20002;-71
2023/12/07 03:57:07;;;;;;;18.83;5.28;;;25.30;73.60;;;;;;6096480;23;20006;-71
2023/12/07 03:59:37;;;;;;;21.75;5.00;;;25.40;73.00;;;;;;6096094;23;20086;-70
2023/12/07 04:02:04;;;;;;;15.93;5.00;;;25.30;73.30;;;;;;6096298;23;20066;-71
2023/12/07 04:04:32;;;;;;;25.77;5.47;;;25.40;73.80;;;;;;6094971;23;20029;-71
2023/12/07 04:06:59;;;;;;;17.35;5.18;;;25.40;74.10;;;;;;6096066;23;20022;-70
2023/12/07 04:09:26;;;;;;;15.27;4.22;;;25.30;73.40;;;;;;6095934;23;20130;-74
2023/12/07 04:11:54;;;;;;;17.13;4.55;;;25.30;73.60;;;;;;6095835;23;20013;-70
2023/12/07 04:14:21;;;;;;;19.20;4.15;;;25.30;73.90;;;;;;6092617;23;20010;-70
2023/12/07 04:16:48;;;;;;;14.18;4.20;;;25.40;73.00;;;;;;6092213;23;20014;-69
2023/12/07 04:19:15;;;;;;;22.60;4.35;;;25.40;73.20;;;;;;6067528;23;20024;-68
2023/12/07 04:21:43;;;;;;;19.33;4.50;;;25.50;73.10;;;;;;6092886;23;20010;-70
2023/12/07 04:24:10;;;;;;;20.08;4.38;;;25.40;74.10;;;;;;6092454;23;20003;-70
2023/12/07 04:26:37;;;;;;;18.50;4.25;;;25.40;73.30;;;;;;6092886;23;20434;-69
2023/12/07 04:29:04;;;;;;;23.65;4.43;;;25.30;73.90;;;;;;6092566;23;20014;-72
2023/12/07 04:31:31;;;;;;;19.85;4.82;;;25.30;74.50;;;;;;6092762;23;20311;-72
2023/12/07 04:33:59;;;;;;;18.88;4.50;;;25.30;74.00;;;;;;6092207;23;20310;-71
2023/12/07 04:36:26;;;;;;;16.20;4.65;;;25.30;74.00;;;;;;6092151;23;20385;-71
2023/12/07 04:38:54;;;;;;;16.38;4.03;;;25.30;73.80;;;;;;6092503;23;20070;-70
2023/12/07 04:41:21;;;;;;;19.33;4.22;;;25.20;72.20;;;;;;6092263;23;20021;-70
2023/12/07 04:43:48;;;;;;;19.15;4.40;;;25.20;73.70;;;;;;6067090;23;20038;-71
2023/12/07 04:46:15;;;;;;;20.83;4.05;;;25.20;74.50;;;;;;6092377;23;20046;-71
2023/12/07 04:48:43;;;;;;;15.30;3.88;;;25.20;72.90;;;;;;6067112;23;20055;-70
2023/12/07 04:51:10;;;;;;;15.45;3.70;;;25.20;74.20;;;;;;6092260;23;20017;-70
2023/12/07 04:53:37;;;;;;;19.45;3.97;;;25.30;74.50;;;;;;6092472;23;20007;-70
2023/12/07 04:56:05;;;;;;;17.98;4.18;;;25.30;74.10;;;;;;6092386;23;20346;-71
2023/12/07 04:58:32;;;;;;;18.80;4.22;;;25.30;74.70;;;;;;6092596;23;20548;-71
2023/12/07 05:00:59;;;;;;;21.77;4.50;;;25.30;74.80;;;;;;6092204;23;20011;-70
2023/12/07 05:03:27;;;;;;;17.10;3.20;;;25.30;73.70;;;;;;6092482;23;20022;-69
2023/12/07 05:05:54;;;;;;;19.30;4.05;;;25.30;73.60;;;;;;6092668;23;20097;-70
2023/12/07 05:08:21;;;;;;;26.60;4.32;;;25.30;74.20;;;;;;6090322;23;20517;-69
2023/12/07 05:10:48;;;;;;;17.67;3.67;;;25.30;74.60;;;;;;6092218;23;20021;-70
2023/12/07 05:13:16;;;;;;;16.13;4.38;;;25.30;73.30;;;;;;6092263;23;20010;-70
2023/12/07 05:15:43;;;;;;;19.15;3.90;;;25.20;73.60;;;;;;6092742;23;20010;-70
2023/12/07 05:18:10;;;;;;;25.77;4.10;;;25.20;74.20;;;;;;6092372;23;20030;-70
2023/12/07 05:20:39;;;;;;;17.98;4.07;;;25.10;73.70;;;;;;6092636;23;20085;-70
2023/12/07 05:23:06;;;;;;;19.02;4.07;;;25.10;74.40;;;;;;6092040;23;20085;-71
2023/12/07 05:25:33;;;;;;;14.57;3.70;;;25.10;73.80;;;;;;6091832;23;20024;-71
2023/12/07 05:28:01;;;;;;;20.38;4.20;;;25.10;74.30;;;;;;6093203;23;20014;-73
2023/12/07 05:30:28;;;;;;;12.07;3.35;;;25.10;74.60;;;;;;6092954;23;20006;-71
2023/12/07 05:32:55;;;;;;;20.05;4.38;;;25.10;74.60;;;;;;6092700;23;20081;-71
2023/12/07 05:35:23;;;;;;;19.50;3.88;;;25.00;74.90;;;;;;6092173;23;20450;-71
2023/12/07 05:37:50;;;;;;;21.63;3.92;;;25.00;75.60;;;;;;6091955;23;20017;-71
2023/12/07 05:40:18;;;;;;;18.55;3.90;;;24.90;74.50;;;;;;6091925;23;20086;-70
2023/12/07 05:42:48;;;;;;;18.58;4.50;;;24.90;75.20;;;;;;6092270;23;20037;-70
2023/12/07 05:45:15;;;;;;;20.90;4.18;;;24.90;74.80;;;;;;6091943;23;20390;-71
2023/12/07 05:47:43;;;;;;;21.25;4.18;;;24.90;75.40;;;;;;6092891;23;20342;-72
2023/12/07 05:50:10;;;;;;;20.73;4.20;;;24.90;75.40;;;;;;6092370;23;19999;-71
2023/12/07 05:52:37;;;;;;;18.67;3.80;;;24.90;74.70;;;;;;6092310;23;20093;-71
2023/12/07 05:55:06;;;;;;;17.35;3.92;;;24.90;75.50;;;;;;6092290;23;20046;-70
2023/12/07 05:57:33;;;;;;;16.27;3.90;;;25.00;75.30;;;;;;6092798;23;20386;-71
2023/12/07 06:00:01;;;;;;;18.52;4.47;;;25.10;75.80;;;;;;6092591;23;20010;-72
2023/12/07 06:02:28;;;;;;;19.75;4.28;;;25.00;75.10;;;;;;6092033;23;20018;-71
2023/12/07 06:04:55;;;;;;;15.57;4.05;;;25.10;75.20;;;;;;6092270;23;20010;-72
2023/12/07 06:07:23;;;;;;;14.57;4.03;;;25.00;74.90;;;;;;6093256;23;20412;-74
2023/12/07 06:09:50;;;;;;;19.55;4.30;;;25.00;75.40;;;;;;6091311;23;20093;-74
2023/12/07 06:12:18;;;;;;;19.42;4.32;;;25.00;74.50;;;;;;6092981;23;20038;-75
2023/12/07 06:14:45;;;;;;;20.08;3.95;;;24.90;74.50;;;;;;6093774;23;20053;-74
2023/12/07 06:17:12;;;;;;;15.43;3.63;;;24.90;74.60;;;;;;6093892;23;20413;-74
2023/12/07 06:19:40;;;;;;;20.27;4.47;;;24.90;75.70;;;;;;6093485;23;20038;-74
2023/12/07 06:22:07;;;;;;;14.80;3.47;;;24.90;75.60;;;;;;6093674;23;20501;-74
2023/12/07 06:24:35;;;;;;;20.67;4.25;;;24.80;76.00;;;;;;6092833;23;20058;-75
2023/12/07 06:27:04;;;;;;;14.30;3.30;;;24.80;75.90;;;;;;6093228;23;20038;-75
2023/12/07 06:29:31;;;;;;;18.50;3.78;;;24.80;75.80;;;;;;6093043;23;20081;-75
2023/12/07 06:32:00;;;;;;;15.68;3.50;;;24.80;75.80;;;;;;6093502;23;20009;-75
2023/12/07 06:34:30;;;;;;;22.20;4.03;;;24.80;75.90;;;;;;6093558;23;20448;-75
2023/12/07 06:36:57;;;;;;;19.15;3.97;;;24.80;75.90;;;;;;6093428;23;20237;-75
2023/12/07 06:39:25;;;;;;;17.60;3.53;;;24.70;75.40;;;;;;6093668;23;20011;-74
2023/12/07 06:41:53;;;;;;;16.25;3.88;;;24.60;75.70;;;;;;6093366;23;20418;-73
2023/12/07 06:44:21;;;;;;;18.73;3.97;;;24.60;76.00;;;;;;6093716;23;20014;-74
2023/12/07 06:46:49;;;;;;;17.55;4.25;;;24.60;76.00;;;;;;6093383;23;20446;-74
2023/12/07 06:49:16;;;;;;;20.55;4.20;;;24.60;75.00;;;;;;6093156;23;20066;-74
2023/12/07 06:51:44;;;;;;;20.52;4.47;;;24.60;75.20;;;;;;6093859;23;20013;-74
2023/12/07 06:54:11;;;;;;;17.40;3.75;;;24.60;75.10;;;;;;6092312;23;20102;-74
2023/12/07 06:56:39;;;;;;;17.90;4.28;;;24.60;75.90;;;;;;6092407;23;20098;-74
2023/12/07 06:59:06;;;;;;;16.42;4.07;;;24.50;75.90;;;;;;6092900;23;20013;-74
2023/12/07 07:01:34;;;;;;;20.70;4.25;;;24.50;75.70;;;;;;6092557;23;20007;-74
2023/12/07 07:04:01;;;;;;;16.50;3.90;;;24.50;76.20;;;;;;6093382;23;20322;-73
2023/12/07 07:06:28;;;;;;;20.00;3.65;;;24.40;76.10;;;;;;6092879;23;20025;-73
2023/12/07 07:08:56;;;;;;;18.90;4.25;;;24.40;76.20;;;;;;6090487;23;20006;-71
2023/12/07 07:11:23;;;;;;;19.58;4.60;;;24.40;76.30;;;;;;6093341;23;20342;-71
2023/12/07 07:13:51;;;;;;;19.02;4.00;;;24.40;76.40;;;;;;6092752;23;20006;-70
2023/12/07 07:16:18;;;;;;;21.70;4.38;;;24.40;76.80;;;;;;6092410;23;20040;-70
2023/12/07 07:18:46;;;;;;;19.25;3.90;;;24.30;76.30;;;;;;6092207;23;20055;-71
2023/12/07 07:21:13;;;;;;;15.02;3.95;;;24.30;76.50;;;;;;6092611;23;20467;-71
2023/12/07 07:23:41;;;;;;;20.65;4.68;;;24.30;76.80;;;;;;6092950;23;20006;-71
2023/12/07 07:26:08;;;;;;;15.02;3.28;;;24.30;77.00;;;;;;6092081;23;20018;-71
2023/12/07 07:28:36;;;;;;;23.33;5.00;;;24.30;77.20;;;;;;6092470;23;20006;-71
2023/12/07 07:31:03;;;;;;;19.48;4.03;;;24.20;76.40;;;;;;6092814;23;20089;-71
2023/12/07 07:33:31;;;;;;;19.80;4.07;;;24.10;77.20;;;;;;6093047;23;20664;-71
2023/12/07 07:35:59;;;;;;;26.10;5.43;;;24.10;77.60;;;;;;6092570;23;20465;-71
2023/12/07 07:38:26;;;;;;;16.73;3.75;;;24.00;77.40;;;;;;6092242;23;20020;-71
2023/12/07 07:40:54;;;;;;;18.15;3.75;;;24.00;77.80;;;;;;6092324;23;20093;-71
2023/12/07 07:43:21;;;;;;;17.42;4.10;;;24.00;77.80;;;;;;6093258;23;20003;-71
2023/12/07 07:45:49;;;;;;;18.40;3.92;;;24.00;77.30;;;;;;6092759;23;20018;-71
2023/12/07 07:48:16;;;;;;;22.23;3.80;;;24.00;77.20;;;;;;6089812;23;20375;-72
2023/12/07 07:50:44;;;;;;;17.17;4.47;;;24.00;77.40;;;;;;6091483;23;20022;-71
2023/12/07 11:06:38;;;;;;;18.85;3.88;;;23.00;81.30;;;;;;6068822;23;20033;-72
2023/12/07 11:09:11;;;;;;;17.70;3.88;;;23.00;81.50;;;;;;6015531;23;20015;-72
2023/12/07 11:11:46;;;;;;;16.75;3.55;;;23.00;81.50;;;;;;6039049;23;20351;-71
2023/12/07 11:14:15;;;;;;;24.67;4.30;;;23.00;81.40;;;;;;6039126;23;19999;-73
2023/12/07 11:16:47;;;;;;;20.70;4.03;;;23.00;81.40;;;;;;6039199;23;20031;-70
2023/12/07 11:19:33;;;;;;;16.58;3.67;;;23.00;81.20;;;;;;6064205;23;20050;-72
2023/12/07 11:22:04;;;;;;;22.33;4.13;;;23.00;81.50;;;;;;6064571;23;20066;-68
2023/12/07 11:24:32;;;;;;;19.17;4.57;;;23.00;81.70;;;;;;6036610;23;20383;-70
2023/12/07 11:26:59;;;;;;;14.00;3.60;;;23.00;81.60;;;;;;6064537;23;20022;-71
2023/12/07 11:29:30;;;;;;;19.48;3.83;;;23.00;81.40;;;;;;6064235;23;20007;-71
2023/12/07 11:32:01;;;;;;;16.67;3.75;;;23.00;81.50;;;;;;6064437;23;20341;-70
2023/12/07 11:34:35;;;;;;;21.42;3.70;;;23.00;81.60;;;;;;6064492;23;20018;-70
2023/12/07 11:37:03;;;;;;;18.60;4.00;;;23.00;81.40;;;;;;6064931;23;20311;-69
2023/12/07 11:39:41;;;;;;;15.75;4.10;;;23.00;81.50;;;;;;6039087;23;20050;-69
2023/12/07 11:42:16;;;;;;;19.20;3.95;;;23.00;81.20;;;;;;6064322;23;20056;-69
2023/12/07 11:44:46;;;;;;;17.83;3.42;;;23.00;81.40;;;;;;6042918;23;20006;-69
2023/12/07 11:47:16;;;;;;;;;;;23.00;81.30;;;;;;6042528;23;20019;-69
2023/12/07 11:49:43;;;;;;;;;;;23.00;81.50;;;;;;6042370;23;19957;-69
2023/12/07 11:52:20;;;;;;;20.05;4.25;;;23.00;81.50;;;;;;6067015;23;19906;-69
2023/12/07 11:54:48;;;;;;;23.38;5.03;;;23.00;81.40;;;;;;6067588;23;20096;-69
2023/12/07 11:57:16;;;;;;;21.70;4.13;;;23.00;81.50;;;;;;6067198;23;20483;-69
2023/12/07 11:59:45;;;;;;;25.30;4.97;;;23.10;81.40;;;;;;6066842;23;20010;-69
2023/12/07 12:02:12;;;;;;;21.50;3.70;;;23.00;81.50;;;;;;6042191;23;20055;-69
2023/12/07 12:04:42;;;;;;;26.05;4.38;;;22.90;81.70;;;;;;6067330;23;20426;-69
2023/12/07 12:07:10;;;;;;;16.23;3.40;;;22.90;81.50;;;;;;6066470;23;20070;-69
2023/12/07 12:09:37;;;;;;;16.83;4.35;;;22.90;81.70;;;;;;6066799;23;20007;-69
2023/12/07 12:12:05;;;;;;;20.70;3.85;;;22.90;81.60;;;;;;6041558;23;20011;-69
2023/12/07 12:14:32;;;;;;;23.58;4.38;;;22.90;81.70;;;;;;6067246;23;20006;-69
2023/12/07 12:16:59;;;;;;;15.85;3.38;;;22.90;81.70;;;;;;6067225;23;20047;-69
2023/12/07 12:19:30;;;;;;;18.33;3.78;;;22.90;81.70;;;;;;6067317;23;20022;-69
2023/12/07 12:21:58;;;;;;;18.45;3.95;;;22.90;81.90;;;;;;6067041;23;19999;-69
2023/12/07 12:24:25;;;;;;;15.43;3.75;;;22.90;82.00;;;;;;6067137;23;20342;-69
2023/12/07 12:26:52;;;;;;;16.67;3.83;;;22.90;82.10;;;;;;6018667;23;20011;-69
2023/12/07 12:29:19;;;;;;;19.73;4.43;;;22.90;81.80;;;;;;6018463;23;20007;-69
2023/12/07 12:31:47;;;;;;;19.27;4.05;;;22.90;81.90;;;;;;6042157;23;20015;-69
2023/12/07 12:34:14;;;;;;;17.02;4.03;;;22.90;82.10;;;;;;6041695;23;20086;-69
2023/12/07 12:36:41;;;;;;;14.35;3.65;;;22.80;82.00;;;;;;6066822;23;19999;-69
2023/12/07 12:39:08;;;;;;;19.45;4.00;;;22.90;82.00;;;;;;6067145;23;19999;-69
2023/12/07 12:41:36;;;;;;;19.42;3.78;;;22.90;81.90;;;;;;6041827;23;20429;-69
2023/12/07 12:44:03;;;;;;;18.58;3.95;;;22.90;82.00;;;;;;6041605;23;20003;-69
2023/12/07 12:46:31;;;;;;;18.63;3.85;;;22.90;81.90;;;;;;6042271;23;20064;-69
2023/12/07 12:49:00;;;;;;;29.15;5.18;;;22.90;81.80;;;;;;6066557;23;20024;-69
2023/12/07 12:51:29;;;;;;;18.55;3.90;;;22.90;81.80;;;;;;6067138;23;20085;-69
2023/12/07 12:53:57;;;;;;;19.90;4.22;;;22.90;81.80;;;;;;6065991;23;20003;-69
2023/12/07 12:56:25;;;;;;;15.85;3.78;;;22.90;81.70;;;;;;6066487;23;20014;-69
2023/12/07 12:58:58;;;;;;;17.58;3.42;;;22.90;81.40;;;;;;6041727;23;20007;-69
2023/12/07 13:01:26;;;;;;;19.75;3.90;;;22.90;81.50;;;;;;6066387;23;20026;-69
2023/12/07 13:03:53;;;;;;;18.50;3.92;;;22.90;81.70;;;;;;6018675;23;20027;-69
2023/12/07 13:06:20;;;;;;;19.13;4.25;;;22.90;81.70;;;;;;6075184;23;20102;-69
2023/12/07 13:08:48;;;;;;;19.75;4.05;;;22.90;82.20;;;;;;6095449;23;20421;-69
2023/12/07 13:11:21;;;;;;;18.45;4.32;;;22.90;82.90;;;;;;6095072;23;20006;-69
2023/12/07 13:13:48;;;;;;;21.40;3.88;;;22.90;83.20;;;;;;6095586;23;20058;-69
2023/12/07 13:16:16;;;;;;;19.25;3.50;;;22.80;82.70;;;;;;6096145;23;20006;-69
2023/12/07 13:18:44;;;;;;;22.60;4.43;;;22.80;83.70;;;;;;6097341;23;20010;-69
2023/12/07 13:21:11;;;;;;;21.30;3.85;;;22.80;84.10;;;;;;6097351;23;20002;-69
2023/12/07 13:23:38;;;;;;;16.60;4.00;;;22.70;84.30;;;;;;6097461;23;20006;-69
2023/12/07 13:26:06;;;;;;;19.52;4.03;;;22.60;84.40;;;;;;6086236;23;20018;-69
2023/12/07 13:28:34;;;;;;;20.23;3.78;;;22.60;84.60;;;;;;6097331;23;20474;-69
2023/12/07 13:31:02;;;;;;;17.83;4.43;;;22.60;85.00;;;;;;6097265;23;20015;-69
2023/12/07 13:33:29;;;;;;;21.83;4.43;;;22.50;84.80;;;;;;6097749;23;20034;-69
2023/12/07 13:35:56;;;;;;;24.42;4.22;;;22.50;84.60;;;;;;6047250;23;20430;-70
2023/12/07 13:38:23;;;;;;;24.08;4.82;;;22.50;84.40;;;;;;6097439;23;20477;-69
2023/12/07 13:40:51;;;;;;;22.60;3.92;;;22.60;84.70;;;;;;6096909;23;20097;-69
2023/12/07 13:43:18;;;;;;;18.05;3.88;;;22.50;84.80;;;;;;6096575;23;20017;-69
2023/12/07 13:45:45;;;;;;;17.58;3.38;;;22.50;84.90;;;;;;6097379;23;20059;-69
2023/12/07 13:48:13;;;;;;;18.75;3.22;;;22.50;84.80;;;;;;6071220;23;20010;-69
2023/12/07 13:50:40;;;;;;;19.60;4.32;;;22.50;84.90;;;;;;6097553;23;20414;-69
2023/12/07 13:53:10;;;;;;;21.60;4.00;;;22.60;84.70;;;;;;6097709;23;20065;-69
2023/12/07 13:55:38;;;;;;;21.67;4.22;;;22.50;84.80;;;;;;6097304;23;20045;-69
2023/12/07 13:58:06;;;;;;;17.08;3.70;;;22.50;84.70;;;;;;6096697;23;20006;-69
2023/12/07 14:00:34;;;;;;;23.17;5.05;;;22.50;84.50;;;;;;6096995;23;20058;-69
2023/12/07 14:03:01;;;;;;;19.60;3.72;;;22.50;84.60;;;;;;6097199;23;20002;-69
2023/12/07 14:05:29;;;;;;;17.63;4.28;;;22.50;84.50;;;;;;6096955;23;20057;-69
2023/12/07 14:07:56;;;;;;;20.27;4.13;;;22.50;84.60;;;;;;6097069;23;20006;-69
2023/12/07 14:10:24;;;;;;;16.02;3.78;;;22.40;84.60;;;;;;6096962;23;20003;-69
2023/12/07 14:12:51;;;;;;;20.08;3.90;;;22.50;84.70;;;;;;6097207;23;20010;-69
2023/12/07 14:15:18;;;;;;;20.33;4.78;;;22.40;84.60;;;;;;6097307;23;20081;-69
2023/12/07 14:17:45;;;;;;;20.90;3.80;;;22.50;84.60;;;;;;6096406;23;20025;-69
2023/12/07 14:20:13;;;;;;;17.63;4.07;;;22.50;84.60;;;;;;6096625;23;20017;-69
2023/12/07 14:22:41;;;;;;;20.60;3.63;;;22.40;84.50;;;;;;6096775;23;20011;-69
2023/12/07 14:25:08;;;;;;;20.10;3.85;;;22.50;84.60;;;;;;6097220;23;20109;-69
2023/12/07 14:27:35;;;;;;;19.20;4.22;;;22.40;84.50;;;;;;6096258;23;20010;-69
2023/12/07 14:30:03;;;;;;;16.13;3.70;;;22.40;84.50;;;;;;6071342;23;20385;-69
2023/12/07 14:32:31;;;;;;;22.65;4.03;;;22.40;84.40;;;;;;6096914;23;20022;-69
2023/12/07 14:34:58;;;;;;;16.35;3.83;;;22.40;84.50;;;;;;6096939;23;20007;-69
2023/12/07 14:37:25;;;;;;;17.88;3.80;;;22.40;84.60;;;;;;6096818;23;20089;-69
2023/12/07 14:39:52;;;;;;;18.63;3.88;;;22.40;84.60;;;;;;6096808;23;20154;-69
2023/12/07 14:42:20;;;;;;;17.50;4.03;;;22.40;84.60;;;;;;6096683;23;20047;-69
2023/12/07 14:44:48;;;;;;;22.92;4.05;;;22.40;84.60;;;;;;6096652;23;20017;-69
2023/12/07 14:47:15;;;;;;;20.90;4.32;;;22.40;84.70;;;;;;6096330;23;20037;-69
2023/12/07 14:49:43;;;;;;;18.92;4.00;;;22.40;84.90;;;;;;6097004;23;20085;-69
2023/12/07 14:52:10;;;;;;;15.25;3.13;;;22.40;84.80;;;;;;6096619;23;20493;-69
2023/12/07 14:54:41;;;;;;;23.58;4.45;;;22.40;84.60;;;;;;6096932;23;20015;-69
2023/12/07 14:57:09;;;;;;;19.08;3.90;;;22.40;84.80;;;;;;6096491;23;20006;-69
2023/12/07 14:59:37;;;;;;;20.92;4.30;;;22.30;84.80;;;;;;6096554;23;20061;-69
2023/12/07 15:02:04;;;;;;;23.35;4.13;;;22.40;84.90;;;;;;6096879;23;20053;-70
2023/12/07 15:04:31;;;;;;;20.33;3.85;;;22.40;84.80;;;;;;6097095;23;20013;-70
2023/12/07 15:06:59;;;;;;;16.45;3.72;;;22.40;84.80;;;;;;6096008;23;20476;-69
2023/12/07 15:09:26;;;;;;;20.02;3.90;;;22.40;84.70;;;;;;6096606;23;20086;-69
2023/12/07 15:11:54;;;;;;;21.60;4.72;;;22.40;84.80;;;;;;6096787;23;20014;-69
2023/12/07 15:14:21;;;;;;;20.23;4.03;;;22.30;84.90;;;;;;6096886;23;20003;-69
2023/12/07 15:16:49;;;;;;;21.98;4.35;;;22.30;84.90;;;;;;6096649;23;20418;-69
2023/12/07 15:19:17;;;;;;;20.10;3.92;;;22.40;84.70;;;;;;6096432;23;20007;-69
2023/12/07 15:21:44;;;;;;;22.08;4.70;;;22.30;84.70;;;;;;6096381;23;20007;-69
2023/12/07 15:24:11;;;;;;;21.02;4.43;;;22.30;84.90;;;;;;6096802;23;20006;-69
2023/12/07 15:26:43;;;;;;;17.05;4.40;;;22.30;84.90;;;;;;6096386;23;20011;-69
2023/12/07 15:29:11;;;;;;;24.08;5.47;;;22.30;84.80;;;;;;6095575;23;20002;-69
2023/12/07 15:31:38;;;;;;;19.15;5.35;;;22.30;84.80;;;;;;6096160;23;20081;-69
2023/12/07 15:34:07;;;;;;;19.90;5.07;;;22.40;84.80;;;;;;6096361;23;19999;-69
2023/12/07 15:36:35;;;;;;;18.70;4.78;;;22.40;84.70;;;;;;6096277;23;20338;-70
2023/12/07 15:39:02;;;;;;;23.40;4.82;;;22.30;84.80;;;;;;6095381;23;20005;-70
2023/12/07 15:41:29;;;;;;;16.67;4.85;;;22.40;84.90;;;;;;6096019;23;20337;-69
2023/12/07 15:43:56;;;;;;;17.27;4.93;;;22.40;84.80;;;;;;6096715;23;20017;-69
2023/12/07 15:46:24;;;;;;;18.48;5.03;;;22.30;84.90;;;;;;6096050;23;20029;-69
2023/12/07 15:48:51;;;;;;;18.42;5.20;;;22.30;84.80;;;;;;6095623;23;20010;-69
2023/12/07 15:51:18;;;;;;;21.65;4.85;;;22.30;84.90;;;;;;6096311;23;20085;-69
2023/12/07 15:53:45;;;;;;;16.30;5.10;;;22.30;85.10;;;;;;6096516;23;20009;-70